Time;durP1;ratioP1;P1;durP2;ratioP2;P2;SDS_P1;SDS_P2;PMS_P1;PMS_P2;Temp;Humidity;BMP_temperature;BMP_pressure;BME280_temperature;BME280_humidity;BME280_pressure;Samples;Min_cycle;Max_cycle;Signal;HPM_P1;HPM_P2
2023/02/07 00:00:08;;;;;;;37.72;19.08;;;;;;;;;;4994464;28;20026;-71
2023/02/07 00:02:34;;;;;;;36.10;20.08;;;;;;;;;;4994660;28;20033;-71
2023/02/07 00:05:00;;;;;;;35.60;20.50;;;;;;;;;;4994272;28;20030;-70
2023/02/07 00:07:26;;;;;;;35.67;19.73;;;;;;;;;;4993677;28;20084;-70
2023/02/07 00:09:52;;;;;;;40.20;18.80;;;;;;;;;;4994656;28;20110;-70
2023/02/07 00:12:18;;;;;;;42.63;21.83;;;;;;;;;;4993066;28;20057;-70
2023/02/07 00:14:45;;;;;;;38.28;19.90;;;;;;;;;;4994403;28;20026;-71
2023/02/07 00:17:11;;;;;;;37.03;20.00;;;;;;;;;;4993407;28;20090;-71
2023/02/07 00:19:37;;;;;;;40.30;20.65;;;;;;;;;;4993991;28;20113;-72
2023/02/07 00:22:03;;;;;;;40.42;21.08;;;;;;;;;;4992660;28;20026;-72
2023/02/07 00:24:29;;;;;;;42.08;20.73;;;;;;;;;;4992613;28;20037;-71
2023/02/07 00:26:55;;;;;;;44.45;22.52;;;;;;;;;;4993897;28;20105;-72
2023/02/07 00:29:21;;;;;;;41.67;20.60;;;;;;;;;;4991753;28;20475;-71
2023/02/07 00:31:48;;;;;;;37.42;18.10;;;;;;;;;;4993910;28;20389;-71
2023/02/07 00:34:14;;;;;;;36.97;18.70;;;;;;;;;;4992844;28;20481;-72
2023/02/07 00:36:41;;;;;;;39.20;18.25;;;;;;;;;;4979226;28;20034;-70
2023/02/07 00:39:08;;;;;;;39.63;19.23;;;;;;;;;;5011521;22;20038;-70
2023/02/07 00:41:34;;;;;;;36.75;19.83;;;;;;;;;;4993671;28;20116;-69
2023/02/07 00:44:01;;;;;;;40.08;20.95;;;;;;;;;;4993641;28;20065;-70
2023/02/07 00:46:27;;;;;;;36.40;20.05;;;;;;;;;;4994302;28;20018;-70
2023/02/07 00:48:53;;;;;;;37.15;19.52;;;;;;;;;;4992964;28;20560;-70
2023/02/07 00:51:19;;;;;;;31.08;17.90;;;;;;;;;;4994529;28;20147;-71
2023/02/07 00:53:46;;;;;;;41.75;20.60;;;;;;;;;;4995140;28;20102;-70
2023/02/07 00:56:14;;;;;;;46.10;21.63;;;;;;;;;;4993802;28;20022;-71
2023/02/07 00:58:40;;;;;;;38.42;20.23;;;;;;;;;;4992557;28;20026;-70
2023/02/07 01:01:06;;;;;;;37.90;20.23;;;;;;;;;;4993036;28;20030;-70
2023/02/07 01:03:32;;;;;;;40.88;20.75;;;;;;;;;;4992526;28;20105;-70
2023/02/07 01:05:58;;;;;;;38.88;20.10;;;;;;;;;;4993074;28;20019;-70
2023/02/07 01:08:24;;;;;;;39.20;21.05;;;;;;;;;;4992228;28;20457;-70
2023/02/07 01:10:50;;;;;;;35.85;20.50;;;;;;;;;;4993005;28;20117;-70
2023/02/07 01:13:16;;;;;;;39.15;20.10;;;;;;;;;;4992633;28;20034;-70
2023/02/07 01:15:44;;;;;;;39.25;20.42;;;;;;;;;;4991549;28;20117;-70
2023/02/07 01:18:10;;;;;;;34.75;18.42;;;;;;;;;;4991930;28;20049;-70
2023/02/07 01:20:36;;;;;;;32.38;18.42;;;;;;;;;;4992613;28;20034;-70
2023/02/07 01:23:03;;;;;;;33.38;19.08;;;;;;;;;;4992508;28;20056;-69
2023/02/07 01:25:29;;;;;;;43.38;21.02;;;;;;;;;;4992471;28;20469;-69
2023/02/07 01:27:55;;;;;;;42.10;21.10;;;;;;;;;;4992313;28;20022;-70
2023/02/07 01:30:21;;;;;;;38.15;20.77;;;;;;;;;;4992674;28;20428;-71
2023/02/07 01:32:48;;;;;;;37.35;19.63;;;;;;;;;;4992432;28;20061;-69
2023/02/07 01:35:14;;;;;;;35.08;17.95;;;;;;;;;;4992421;28;20397;-69
2023/02/07 01:37:40;;;;;;;39.92;20.05;;;;;;;;;;4992339;28;20030;-70
2023/02/07 01:40:06;;;;;;;37.53;18.77;;;;;;;;;;4991318;28;20042;-69
2023/02/07 01:42:32;;;;;;;32.33;18.92;;;;;;;;;;4993283;28;20385;-69
2023/02/07 01:45:00;;;;;;;32.80;18.23;;;;;;;;;;4992993;28;20073;-69
2023/02/07 01:47:26;;;;;;;34.55;18.75;;;;;;;;;;4991437;28;20105;-70
2023/02/07 01:49:54;;;;;;;34.08;19.50;;;;;;;;;;4992271;28;20382;-70
2023/02/07 01:52:22;;;;;;;36.17;19.10;;;;;;;;;;4990889;28;20022;-69
2023/02/07 01:54:51;;;;;;;35.58;19.45;;;;;;;;;;4992360;28;20033;-70
2023/02/07 01:57:19;;;;;;;38.00;19.42;;;;;;;;;;4991234;28;20485;-68
2023/02/07 01:59:45;;;;;;;31.25;17.65;;;;;;;;;;4990684;28;20034;-70
2023/02/07 02:02:13;;;;;;;35.08;18.95;;;;;;;;;;4992048;28;20046;-70
2023/02/07 02:04:40;;;;;;;34.00;17.08;;;;;;;;;;4992103;28;20420;-70
2023/02/07 02:07:07;;;;;;;35.13;18.55;;;;;;;;;;4991537;28;20030;-70
2023/02/07 02:09:33;;;;;;;35.30;18.83;;;;;;;;;;4991943;28;20097;-69
2023/02/07 02:12:19;;;;;;;31.58;17.63;;;;;;;;;;4992348;28;20045;-70
2023/02/07 02:14:52;;;;;;;38.53;20.25;;;;;;;;;;4990640;28;20080;-69
2023/02/07 02:17:18;;;;;;;33.35;18.02;;;;;;;;;;4991441;28;20316;-69
2023/02/07 02:20:09;;;;;;;35.28;18.25;;;;;;;;;;4992089;28;20077;-69
2023/02/07 02:22:55;;;;;;;23.70;12.90;;;;;;;;;;4990919;28;20421;-70
2023/02/07 02:25:33;;;;;;;38.60;18.05;;;;;;;;;;4991969;28;20026;-69
2023/02/07 02:28:17;;;;;;;32.90;16.73;;;;;;;;;;4991647;28;20018;-70
2023/02/07 02:30:52;;;;;;;33.33;17.95;;;;;;;;;;4992464;28;20473;-68
2023/02/07 02:33:27;;;;;;;30.73;17.48;;;;;;;;;;4992127;28;20404;-69
2023/02/07 02:36:02;;;;;;;36.95;18.27;;;;;;;;;;4990583;28;20073;-69
2023/02/07 02:38:34;;;;;;;36.88;18.77;;;;;;;;;;4991831;28;20030;-70
2023/02/07 02:41:03;;;;;;;34.47;17.27;;;;;;;;;;4992993;28;20169;-70
2023/02/07 02:43:32;;;;;;;33.88;18.48;;;;;;;;;;4992581;28;20080;-69
2023/02/07 02:46:01;;;;;;;30.75;17.88;;;;;;;;;;4991575;28;20491;-68
2023/02/07 02:48:28;;;;;;;33.55;16.02;;;;;;;;;;4991537;28;20089;-70
2023/02/07 02:50:54;;;;;;;35.92;17.88;;;;;;;;;;4991966;28;20469;-69
2023/02/07 02:53:21;;;;;;;51.40;18.77;;;;;;;;;;4991652;28;20041;-69
2023/02/07 02:55:59;;;;;;;43.90;18.80;;;;;;;;;;4991663;28;20088;-69
2023/02/07 02:58:31;;;;;;;34.28;16.60;;;;;;;;;;4989187;28;20428;-70
2023/02/07 03:01:17;;;;;;;45.10;19.10;;;;;;;;;;4991501;28;20041;-70
2023/02/07 03:04:02;;;;;;;40.63;18.60;;;;;;;;;;4975889;28;20507;-70
2023/02/07 03:06:34;;;;;;;39.72;18.92;;;;;;;;;;4992809;28;20031;-70
2023/02/07 03:09:23;;;;;;;39.00;17.40;;;;;;;;;;4992376;28;20038;-70
2023/02/07 03:12:05;;;;;;;35.63;18.60;;;;;;;;;;4968348;28;20038;-70
2023/02/07 03:14:45;;;;;;;36.33;18.67;;;;;;;;;;4991497;28;20488;-69
2023/02/07 03:17:19;;;;;;;33.03;17.10;;;;;;;;;;4992400;28;20031;-70
2023/02/07 03:19:49;;;;;;;36.28;19.75;;;;;;;;;;4975990;28;20038;-70
2023/02/07 03:22:17;;;;;;;37.72;19.35;;;;;;;;;;4992985;28;20035;-70
2023/02/07 03:24:49;;;;;;;37.90;18.23;;;;;;;;;;4992348;28;20037;-70
2023/02/07 03:27:16;;;;;;;36.70;17.63;;;;;;;;;;4995385;28;20034;-70
2023/02/07 03:29:45;;;;;;;36.53;17.95;;;;;;;;;;4979371;28;20053;-70
2023/02/07 03:32:12;;;;;;;35.65;18.38;;;;;;;;;;4997017;28;20026;-69
2023/02/07 03:34:43;;;;;;;37.28;18.50;;;;;;;;;;4996824;28;20034;-69
2023/02/07 03:37:11;;;;;;;40.33;18.92;;;;;;;;;;4995488;28;20061;-68
2023/02/07 03:39:38;;;;;;;36.95;18.25;;;;;;;;;;4995128;28;20408;-70
2023/02/07 03:42:06;;;;;;;36.45;17.85;;;;;;;;;;4994991;28;20121;-70
2023/02/07 03:44:34;;;;;;;35.08;17.10;;;;;;;;;;4994127;28;20405;-69
2023/02/07 03:47:00;;;;;;;31.90;16.58;;;;;;;;;;4995170;28;20026;-68
2023/02/07 03:49:26;;;;;;;31.45;17.70;;;;;;;;;;4996653;28;20030;-70
2023/02/07 03:51:52;;;;;;;28.95;16.17;;;;;;;;;;4997096;28;20018;-70
2023/02/07 03:54:18;;;;;;;30.13;15.90;;;;;;;;;;4995489;28;20027;-70
2023/02/07 03:56:44;;;;;;;34.97;17.20;;;;;;;;;;4994684;28;20030;-70
2023/02/07 03:59:10;;;;;;;34.85;18.13;;;;;;;;;;4991971;28;20081;-70
2023/02/07 04:01:40;;;;;;;39.10;17.70;;;;;;;;;;4994501;28;20038;-69
2023/02/07 04:04:06;;;;;;;39.92;19.50;;;;;;;;;;4994520;28;20026;-70
2023/02/07 04:06:32;;;;;;;31.00;16.67;;;;;;;;;;4994878;28;20030;-70
2023/02/07 04:08:58;;;;;;;29.77;16.27;;;;;;;;;;4993381;28;20022;-71
2023/02/07 04:11:24;;;;;;;32.47;16.60;;;;;;;;;;4994695;28;20086;-69
2023/02/07 04:13:50;;;;;;;31.70;16.38;;;;;;;;;;4994749;28;20023;-70
2023/02/07 04:16:16;;;;;;;33.33;17.48;;;;;;;;;;4993155;28;20521;-71
2023/02/07 04:18:42;;;;;;;27.02;15.73;;;;;;;;;;4993411;28;20030;-70
2023/02/07 04:21:09;;;;;;;28.33;15.18;;;;;;;;;;4992617;28;20037;-69
2023/02/07 04:23:35;;;;;;;30.75;14.57;;;;;;;;;;4994122;28;20026;-69
2023/02/07 04:26:02;;;;;;;32.63;16.95;;;;;;;;;;4994104;28;20029;-70
2023/02/07 04:28:28;;;;;;;31.15;15.20;;;;;;;;;;4993461;28;20032;-69
2023/02/07 04:30:55;;;;;;;28.52;15.48;;;;;;;;;;4994128;28;20058;-70
2023/02/07 04:33:21;;;;;;;32.35;15.63;;;;;;;;;;4993927;28;20440;-69
2023/02/07 04:35:53;;;;;;;30.60;16.05;;;;;;;;;;4992962;28;20038;-70
2023/02/07 04:38:19;;;;;;;29.98;15.18;;;;;;;;;;4993763;28;20031;-70
2023/02/07 04:40:45;;;;;;;35.78;16.17;;;;;;;;;;4994479;28;20093;-69
2023/02/07 04:43:11;;;;;;;34.45;15.20;;;;;;;;;;4994181;28;20030;-69
2023/02/07 04:45:37;;;;;;;33.65;17.90;;;;;;;;;;4992258;28;20023;-70
2023/02/07 04:48:03;;;;;;;32.65;16.30;;;;;;;;;;4993027;28;20085;-70
2023/02/07 04:50:29;;;;;;;29.98;15.65;;;;;;;;;;4993764;28;20101;-70
2023/02/07 04:52:55;;;;;;;30.98;16.20;;;;;;;;;;4993269;28;20130;-70
2023/02/07 04:55:21;;;;;;;33.00;16.52;;;;;;;;;;4992956;28;20483;-70
2023/02/07 04:57:47;;;;;;;30.10;15.73;;;;;;;;;;4991311;28;20068;-70
2023/02/07 05:00:14;;;;;;;31.35;15.27;;;;;;;;;;4992979;28;20060;-70
2023/02/07 05:02:40;;;;;;;36.35;17.00;;;;;;;;;;4993193;28;20432;-69
2023/02/07 05:05:06;;;;;;;34.35;16.33;;;;;;;;;;4993529;28;20026;-70
2023/02/07 05:07:33;;;;;;;31.67;16.08;;;;;;;;;;4992205;28;20034;-69
2023/02/07 05:09:59;;;;;;;30.15;16.05;;;;;;;;;;4991668;28;20469;-68
2023/02/07 05:12:25;;;;;;;33.95;17.13;;;;;;;;;;4993090;28;20109;-69
2023/02/07 05:14:51;;;;;;;31.30;17.45;;;;;;;;;;4992631;28;20037;-70
2023/02/07 05:17:17;;;;;;;36.30;17.95;;;;;;;;;;4991910;28;20034;-70
2023/02/07 05:19:43;;;;;;;29.33;15.25;;;;;;;;;;4993259;28;20464;-69
2023/02/07 05:22:09;;;;;;;34.03;16.80;;;;;;;;;;4992983;28;20026;-69
2023/02/07 05:24:35;;;;;;;29.63;15.15;;;;;;;;;;4993145;28;20035;-69
2023/02/07 05:27:01;;;;;;;28.35;15.85;;;;;;;;;;4992420;28;20029;-69
2023/02/07 05:29:27;;;;;;;30.27;15.80;;;;;;;;;;4992280;28;20030;-70
2023/02/07 05:34:37;;;;;;;35.10;16.77;;;;;;;;;;4992506;28;20053;-69
2023/02/07 05:37:03;;;;;;;30.60;15.32;;;;;;;;;;4991918;28;20034;-68
2023/02/07 05:39:29;;;;;;;31.45;16.48;;;;;;;;;;4992174;28;20034;-70
2023/02/07 05:41:55;;;;;;;30.95;16.38;;;;;;;;;;4992439;28;20035;-70
2023/02/07 05:44:21;;;;;;;26.88;15.30;;;;;;;;;;4992303;28;20037;-69
2023/02/07 05:46:47;;;;;;;27.33;15.32;;;;;;;;;;4992628;28;20037;-70
2023/02/07 05:49:14;;;;;;;36.88;16.98;;;;;;;;;;4990297;28;20097;-70
2023/02/07 05:51:40;;;;;;;34.50;17.27;;;;;;;;;;4991945;28;20097;-70
2023/02/07 05:54:05;;;;;;;40.08;17.38;;;;;;;;;;4991916;28;20114;-70
2023/02/07 05:56:32;;;;;;;31.77;15.73;;;;;;;;;;4991913;28;20034;-70
2023/02/07 05:58:58;;;;;;;33.22;16.60;;;;;;;;;;4991468;28;20350;-70
2023/02/07 06:01:24;;;;;;;33.67;16.05;;;;;;;;;;4992068;28;20030;-70
2023/02/07 06:03:50;;;;;;;33.97;15.65;;;;;;;;;;4992112;28;20036;-69
2023/02/07 06:06:16;;;;;;;31.20;15.82;;;;;;;;;;4991928;28;20041;-70
2023/02/07 06:08:42;;;;;;;31.42;16.17;;;;;;;;;;4991174;28;20031;-69
2023/02/07 06:11:08;;;;;;;33.47;15.50;;;;;;;;;;4991545;28;20026;-69
2023/02/07 06:13:34;;;;;;;41.53;16.15;;;;;;;;;;4991496;28;20527;-71
2023/02/07 06:16:00;;;;;;;39.00;16.20;;;;;;;;;;4991579;28;20034;-70
2023/02/07 06:18:26;;;;;;;36.03;16.00;;;;;;;;;;4991059;28;20037;-71
2023/02/07 06:20:52;;;;;;;37.05;15.82;;;;;;;;;;4991775;28;20030;-69
2023/02/07 06:23:19;;;;;;;38.58;16.60;;;;;;;;;;4991496;28;20141;-71
2023/02/07 06:25:45;;;;;;;30.05;15.40;;;;;;;;;;4991633;28;20106;-70
2023/02/07 06:28:11;;;;;;;31.45;16.05;;;;;;;;;;4990561;28;20062;-70
2023/02/07 06:30:37;;;;;;;35.15;16.30;;;;;;;;;;4991384;28;20027;-70
2023/02/07 06:33:03;;;;;;;45.17;17.42;;;;;;;;;;4991620;28;20037;-70
2023/02/07 06:35:29;;;;;;;38.22;19.48;;;;;;;;;;4990807;28;20034;-69
2023/02/07 06:37:55;;;;;;;33.92;17.15;;;;;;;;;;4977818;28;20038;-71
2023/02/07 06:40:21;;;;;;;35.10;16.40;;;;;;;;;;5011470;23;20120;-71
2023/02/07 06:42:47;;;;;;;31.08;15.90;;;;;;;;;;4993242;28;20022;-72
2023/02/07 06:45:16;;;;;;;34.28;16.85;;;;;;;;;;4992648;28;20029;-71
2023/02/07 06:47:45;;;;;;;27.77;15.23;;;;;;;;;;4976834;28;20027;-71
2023/02/07 06:50:11;;;;;;;28.58;14.38;;;;;;;;;;4992537;28;20022;-71
2023/02/07 06:52:37;;;;;;;33.50;17.30;;;;;;;;;;4991848;28;20057;-72
2023/02/07 06:55:03;;;;;;;28.52;16.10;;;;;;;;;;4991649;28;20105;-71
2023/02/07 06:57:32;;;;;;;36.03;17.05;;;;;;;;;;4990870;28;20026;-73
2023/02/07 07:00:01;;;;;;;37.22;19.27;;;;;;;;;;4992640;28;20774;-72
2023/02/07 07:02:27;;;;;;;39.65;20.48;;;;;;;;;;4995900;28;20026;-72
2023/02/07 07:04:54;;;;;;;44.53;20.35;;;;;;;;;;4996079;28;20028;-71
2023/02/07 07:07:20;;;;;;;39.45;20.02;;;;;;;;;;4993672;28;20145;-72
2023/02/07 07:09:46;;;;;;;35.42;18.67;;;;;;;;;;4995908;28;20030;-73
2023/02/07 07:12:12;;;;;;;32.97;18.02;;;;;;;;;;4993932;28;20400;-71
2023/02/07 07:14:38;;;;;;;36.20;19.20;;;;;;;;;;4994556;28;20050;-72
2023/02/07 07:17:04;;;;;;;36.58;18.27;;;;;;;;;;4992238;28;20029;-70
2023/02/07 07:19:30;;;;;;;27.63;14.90;;;;;;;;;;4991603;28;20030;-71
2023/02/07 07:21:57;;;;;;;32.08;16.67;;;;;;;;;;4995019;28;20034;-71
2023/02/07 07:24:24;;;;;;;31.05;17.00;;;;;;;;;;4995442;28;20513;-71
2023/02/07 07:26:50;;;;;;;31.55;16.42;;;;;;;;;;4994857;28;20100;-72
2023/02/07 07:29:16;;;;;;;30.23;17.08;;;;;;;;;;4993855;28;20034;-72
2023/02/07 07:31:42;;;;;;;32.97;17.30;;;;;;;;;;4995140;28;20034;-71
2023/02/07 07:34:08;;;;;;;32.05;15.27;;;;;;;;;;4994917;28;20030;-71
2023/02/07 07:36:34;;;;;;;25.90;13.98;;;;;;;;;;4993541;28;20031;-72
2023/02/07 07:39:00;;;;;;;27.67;14.40;;;;;;;;;;4994066;28;20070;-69
2023/02/07 07:41:26;;;;;;;27.02;16.05;;;;;;;;;;5000999;28;20034;-71
2023/02/07 07:43:54;;;;;;;26.98;14.50;;;;;;;;;;5021881;28;20033;-70
2023/02/07 07:46:20;;;;;;;27.35;13.77;;;;;;;;;;5011774;28;20064;-71
2023/02/07 07:48:46;;;;;;;27.23;15.20;;;;;;;;;;5001589;28;20109;-70
2023/02/07 07:51:12;;;;;;;23.73;14.02;;;;;;;;;;4995432;28;20023;-71
2023/02/07 07:53:38;;;;;;;28.35;14.80;;;;;;;;;;4995340;28;20049;-72
2023/02/07 07:56:04;;;;;;;27.67;16.10;;;;;;;;;;4995446;28;20026;-71
2023/02/07 07:58:30;;;;;;;27.63;15.40;;;;;;;;;;4994568;28;20030;-71
2023/02/07 08:00:56;;;;;;;30.85;17.13;;;;;;;;;;4994890;28;20029;-71
2023/02/07 08:03:22;;;;;;;33.53;17.17;;;;;;;;;;4994372;28;20034;-70
2023/02/07 08:05:49;;;;;;;28.63;16.83;;;;;;;;;;4992669;28;20544;-70
2023/02/07 08:08:15;;;;;;;26.63;16.15;;;;;;;;;;4992107;28;20393;-72
2023/02/07 08:10:41;;;;;;;31.58;16.55;;;;;;;;;;4992367;28;20026;-70
2023/02/07 08:13:08;;;;;;;28.15;16.85;;;;;;;;;;4990392;28;20026;-71
2023/02/07 08:15:34;;;;;;;30.35;16.77;;;;;;;;;;4992643;28;20425;-70
2023/02/07 08:18:00;;;;;;;32.65;17.85;;;;;;;;;;4990540;28;20061;-70
2023/02/07 08:20:26;;;;;;;29.33;17.50;;;;;;;;;;4993792;28;20019;-71
2023/02/07 08:22:52;;;;;;;26.23;16.20;;;;;;;;;;4994177;28;20477;-74
2023/02/07 08:25:18;;;;;;;30.98;17.50;;;;;;;;;;4993665;28;20026;-73
2023/02/07 08:27:45;;;;;;;29.30;16.38;;;;;;;;;;4993556;28;20054;-73
2023/02/07 08:30:11;;;;;;;32.75;17.15;;;;;;;;;;4994015;28;20034;-72
2023/02/07 08:32:38;;;;;;;35.67;18.00;;;;;;;;;;4994192;28;20030;-69
2023/02/07 08:35:04;;;;;;;31.50;17.33;;;;;;;;;;4994127;28;20548;-71
2023/02/07 08:37:30;;;;;;;31.63;17.92;;;;;;;;;;4992812;28;20030;-70
2023/02/07 08:39:57;;;;;;;36.95;19.13;;;;;;;;;;4993271;28;20112;-70
2023/02/07 08:42:23;;;;;;;35.40;18.48;;;;;;;;;;4993676;28;20025;-69
2023/02/07 08:44:50;;;;;;;33.72;18.35;;;;;;;;;;4993647;28;20473;-71
2023/02/07 08:47:17;;;;;;;31.48;16.95;;;;;;;;;;4991439;28;20029;-73
2023/02/07 08:49:43;;;;;;;33.60;17.35;;;;;;;;;;4993672;28;20026;-71
2023/02/07 08:52:10;;;;;;;30.50;15.93;;;;;;;;;;4991143;28;20404;-71
2023/02/07 08:54:36;;;;;;;29.73;15.88;;;;;;;;;;4993437;28;20100;-73
2023/02/07 08:57:02;;;;;;;29.88;16.60;;;;;;;;;;4993143;28;20058;-73
2023/02/07 08:59:28;;;;;;;29.73;16.95;;;;;;;;;;4993122;28;20106;-72
2023/02/07 09:01:54;;;;;;;32.03;16.80;;;;;;;;;;4994416;28;20072;-73
2023/02/07 09:04:20;;;;;;;29.48;16.73;;;;;;;;;;4992823;28;20449;-73
2023/02/07 09:06:46;;;;;;;30.52;16.52;;;;;;;;;;4993495;28;20464;-73
2023/02/07 09:09:12;;;;;;;29.10;16.17;;;;;;;;;;4992462;28;20369;-73
2023/02/07 09:11:38;;;;;;;28.33;16.58;;;;;;;;;;4983855;28;20068;-73
2023/02/07 09:14:04;;;;;;;29.58;15.95;;;;;;;;;;4993283;28;20026;-73
2023/02/07 09:16:30;;;;;;;26.92;15.52;;;;;;;;;;4990627;28;20354;-72
2023/02/07 09:18:56;;;;;;;25.55;15.75;;;;;;;;;;4990533;28;20034;-72
2023/02/07 09:21:22;;;;;;;31.35;17.05;;;;;;;;;;4990997;28;20126;-71
2023/02/07 09:23:48;;;;;;;31.52;16.27;;;;;;;;;;4991596;28;20037;-72
2023/02/07 09:26:19;;;;;;;32.20;15.82;;;;;;;;;;4991595;28;20030;-72
2023/02/07 09:28:45;;;;;;;24.00;14.52;;;;;;;;;;4984244;28;20540;-71
2023/02/07 09:31:12;;;;;;;28.83;16.90;;;;;;;;;;4993508;28;20030;-71
2023/02/07 09:33:38;;;;;;;31.63;16.02;;;;;;;;;;4993276;28;20026;-71
2023/02/07 09:36:05;;;;;;;35.28;17.65;;;;;;;;;;4993297;28;20153;-72
2023/02/07 09:38:31;;;;;;;29.20;17.63;;;;;;;;;;4992107;28;20034;-72
2023/02/07 09:40:58;;;;;;;35.15;16.95;;;;;;;;;;4991222;28;20034;-71
2023/02/07 09:43:54;;;;;;;30.23;16.30;;;;;;;;;;4991253;28;20030;-71
2023/02/07 09:46:26;;;;;;;27.17;15.02;;;;;;;;;;4992443;28;20026;-71
2023/02/07 09:48:54;;;;;;;27.98;15.85;;;;;;;;;;4991815;28;20761;-71
2023/02/07 09:51:23;;;;;;;27.02;14.80;;;;;;;;;;4992045;28;20054;-71
2023/02/07 09:54:00;;;;;;;30.73;15.30;;;;;;;;;;4991021;28;20049;-72
2023/02/07 09:56:29;;;;;;;23.45;14.27;;;;;;;;;;4986234;28;20034;-70
2023/02/07 09:59:13;;;;;;;25.40;14.10;;;;;;;;;;4989876;28;20062;-69
2023/02/07 10:01:42;;;;;;;24.92;15.13;;;;;;;;;;4992146;28;20030;-71
2023/02/07 10:04:20;;;;;;;27.50;15.63;;;;;;;;;;4992352;28;20523;-71
2023/02/07 10:06:51;;;;;;;22.73;14.00;;;;;;;;;;4992102;28;20030;-71
2023/02/07 10:09:18;;;;;;;28.15;14.88;;;;;;;;;;4990335;28;20493;-73
2023/02/07 10:11:57;;;;;;;28.73;15.52;;;;;;;;;;4984906;28;20035;-72
2023/02/07 10:14:41;;;;;;;27.10;14.93;;;;;;;;;;4979986;28;20080;-72
2023/02/07 10:17:07;;;;;;;26.35;15.10;;;;;;;;;;4991348;28;20037;-71
2023/02/07 10:19:41;;;;;;;29.20;15.25;;;;;;;;;;4990223;28;20031;-72
2023/02/07 10:22:20;;;;;;;27.58;17.10;;;;;;;;;;4992173;28;20034;-72
2023/02/07 10:25:08;;;;;;;33.88;16.92;;;;;;;;;;4991712;28;20076;-72
2023/02/07 10:27:43;;;;;;;28.67;16.95;;;;;;;;;;4991283;28;20158;-71
2023/02/07 10:30:15;;;;;;;29.73;17.23;;;;;;;;;;4991826;28;20072;-74
2023/02/07 10:32:43;;;;;;;28.67;16.45;;;;;;;;;;4991734;28;20105;-71
2023/02/07 10:35:15;;;;;;;30.10;16.48;;;;;;;;;;4991044;28;20084;-71
2023/02/07 10:37:43;;;;;;;33.97;16.98;;;;;;;;;;4991023;28;20382;-72
2023/02/07 10:40:15;;;;;;;31.13;17.77;;;;;;;;;;4991866;28;20038;-71
2023/02/07 10:42:42;;;;;;;35.53;18.08;;;;;;;;;;4991676;28;20492;-71
2023/02/07 10:45:13;;;;;;;31.90;16.48;;;;;;;;;;4991911;28;20432;-70
2023/02/07 10:47:40;;;;;;;30.98;16.65;;;;;;;;;;4990723;28;20499;-70
2023/02/07 10:50:13;;;;;;;35.42;18.08;;;;;;;;;;4991390;28;20085;-70
2023/02/07 10:52:42;;;;;;;30.75;17.85;;;;;;;;;;4991823;28;20033;-70
2023/02/07 10:55:11;;;;;;;32.15;17.90;;;;;;;;;;4991511;28;20556;-71
2023/02/07 10:57:41;;;;;;;29.98;17.90;;;;;;;;;;4990609;28;20022;-71
2023/02/07 11:00:23;;;;;;;34.65;18.48;;;;;;;;;;4991554;28;20041;-71
2023/02/07 11:02:53;;;;;;;30.55;16.58;;;;;;;;;;4991598;28;20093;-70
2023/02/07 11:05:20;;;;;;;31.20;16.45;;;;;;;;;;4990023;28;20022;-71
2023/02/07 11:08:01;;;;;;;37.97;17.42;;;;;;;;;;4990505;28;20038;-70
2023/02/07 11:10:37;;;;;;;34.80;19.45;;;;;;;;;;4991389;28;20022;-70
2023/02/07 11:13:05;;;;;;;30.85;17.90;;;;;;;;;;4991334;28;20034;-71
2023/02/07 11:15:46;;;;;;;32.22;17.35;;;;;;;;;;4991193;28;20073;-71
2023/02/07 11:18:36;;;;;;;35.20;18.83;;;;;;;;;;4990722;28;20027;-70
2023/02/07 11:21:02;;;;;;;35.15;17.73;;;;;;;;;;4991542;28;20018;-70
2023/02/07 11:23:28;;;;;;;34.60;19.08;;;;;;;;;;4990480;28;20046;-70
2023/02/07 11:25:55;;;;;;;33.58;17.85;;;;;;;;;;4991157;28;20022;-71
2023/02/07 11:28:26;;;;;;;30.88;19.42;;;;;;;;;;4990506;28;20109;-70
2023/02/07 11:30:54;;;;;;;;;;;;;;;;;;4991458;28;20045;-70
2023/02/07 11:33:22;;;;;;;33.55;17.95;;;;;;;;;;4990804;28;19917;-70
2023/02/07 11:36:01;;;;;;;33.38;18.88;;;;;;;;;;4990905;28;20037;-70
2023/02/07 11:38:31;;;;;;;34.35;18.83;;;;;;;;;;4990294;28;20434;-70
2023/02/07 11:41:05;;;;;;;35.35;18.33;;;;;;;;;;4990819;28;20354;-71
2023/02/07 11:43:31;;;;;;;31.98;18.27;;;;;;;;;;4989270;28;20558;-70
2023/02/07 11:46:03;;;;;;;34.70;18.63;;;;;;;;;;4992054;28;20036;-71
2023/02/07 11:48:30;;;;;;;34.75;18.85;;;;;;;;;;4993674;28;20129;-71
2023/02/07 11:50:57;;;;;;;32.33;18.67;;;;;;;;;;4994500;28;20022;-70
2023/02/07 11:53:31;;;;;;;32.05;18.33;;;;;;;;;;4994330;28;20054;-70
2023/02/07 11:55:58;;;;;;;31.30;17.67;;;;;;;;;;4994584;28;20484;-70
2023/02/07 11:58:34;;;;;;;29.52;17.67;;;;;;;;;;4993921;28;20073;-72
2023/02/07 12:01:01;;;;;;;35.28;17.90;;;;;;;;;;4994418;28;20030;-72
2023/02/07 12:03:31;;;;;;;31.70;18.55;;;;;;;;;;4994015;28;20030;-71
2023/02/07 12:06:00;;;;;;;33.35;18.55;;;;;;;;;;4994298;28;20022;-70
2023/02/07 12:08:32;;;;;;;34.90;18.95;;;;;;;;;;4992497;28;20121;-72
2023/02/07 12:11:01;;;;;;;32.30;18.33;;;;;;;;;;4994248;28;20032;-69
2023/02/07 12:13:29;;;;;;;33.63;18.48;;;;;;;;;;4993799;28;20488;-71
2023/02/07 12:16:00;;;;;;;31.15;18.10;;;;;;;;;;4994091;28;20030;-72
2023/02/07 12:18:28;;;;;;;29.20;18.08;;;;;;;;;;4993295;28;20026;-67
2023/02/07 12:20:57;;;;;;;33.85;17.73;;;;;;;;;;4993803;28;20031;-70
2023/02/07 12:23:33;;;;;;;31.88;18.92;;;;;;;;;;4992403;28;20030;-70
2023/02/07 12:26:02;;;;;;;32.10;17.77;;;;;;;;;;4992546;28;20413;-71
2023/02/07 12:28:31;;;;;;;29.00;16.80;;;;;;;;;;4992986;28;20030;-70
2023/02/07 12:30:59;;;;;;;28.40;17.33;;;;;;;;;;4992396;28;20485;-70
2023/02/07 12:33:52;;;;;;;31.38;18.10;;;;;;;;;;4992768;28;20022;-70
2023/02/07 12:36:27;;;;;;;28.27;17.85;;;;;;;;;;4975183;28;20358;-70
2023/02/07 12:39:00;;;;;;;33.95;18.23;;;;;;;;;;4986402;28;20030;-70
2023/02/07 12:41:30;;;;;;;31.25;16.67;;;;;;;;;;5007415;23;20046;-72
2023/02/07 12:44:11;;;;;;;32.53;18.63;;;;;;;;;;4993848;28;20041;-72
2023/02/07 12:46:46;;;;;;;32.30;18.35;;;;;;;;;;4993652;28;20022;-73
2023/02/07 12:49:28;;;;;;;31.00;18.67;;;;;;;;;;4992289;28;20022;-71
2023/02/07 12:52:00;;;;;;;29.40;17.33;;;;;;;;;;4959568;28;20054;-72
2023/02/07 12:54:34;;;;;;;33.65;19.20;;;;;;;;;;4974015;28;20031;-73
2023/02/07 12:57:15;;;;;;;32.42;18.00;;;;;;;;;;4973443;28;20085;-71
2023/02/07 12:59:41;;;;;;;;;;;;;;;;;;4973280;28;20582;-73
2023/02/07 13:02:26;;;;;;;34.90;17.45;;;;;;;;;;4972263;28;19906;-71
2023/02/07 13:05:06;;;;;;;29.50;17.92;;;;;;;;;;4971313;28;20400;-73
2023/02/07 13:07:44;;;;;;;30.00;18.20;;;;;;;;;;4971031;28;20031;-73
2023/02/07 13:10:20;;;;;;;34.22;18.95;;;;;;;;;;4971898;28;20038;-72
2023/02/07 13:12:53;;;;;;;35.47;20.33;;;;;;;;;;4971926;28;20489;-72
2023/02/07 13:15:32;;;;;;;34.67;20.67;;;;;;;;;;4971094;28;20023;-71
2023/02/07 13:18:11;;;;;;;35.55;19.05;;;;;;;;;;4972943;28;20022;-72
2023/02/07 13:20:49;;;;;;;33.30;21.38;;;;;;;;;;4973745;28;20041;-73
2023/02/07 13:23:21;;;;;;;36.15;20.88;;;;;;;;;;4973708;28;20069;-71
2023/02/07 13:25:48;;;;;;;35.78;20.23;;;;;;;;;;4973555;28;20030;-75
2023/02/07 13:28:34;;;;;;;36.88;21.42;;;;;;;;;;4971744;28;20389;-72
2023/02/07 13:31:00;;;;;;;38.33;21.02;;;;;;;;;;4972371;28;20514;-71
2023/02/07 13:33:29;;;;;;;32.92;20.90;;;;;;;;;;4974192;28;20030;-72
2023/02/07 13:36:01;;;;;;;33.75;20.98;;;;;;;;;;4973459;28;20053;-71
2023/02/07 13:38:53;;;;;;;36.80;22.13;;;;;;;;;;4972963;28;20026;-72
2023/02/07 13:41:23;;;;;;;38.80;22.30;;;;;;;;;;4952241;28;20074;-72
2023/02/07 13:43:49;;;;;;;37.58;21.40;;;;;;;;;;4954137;28;20027;-72
2023/02/07 13:46:33;;;;;;;35.15;21.23;;;;;;;;;;4952584;28;20480;-72
2023/02/07 13:49:20;;;;;;;34.67;21.25;;;;;;;;;;4956051;28;20065;-72
2023/02/07 13:51:51;;;;;;;31.83;20.38;;;;;;;;;;4952499;28;20378;-72
2023/02/07 13:54:17;;;;;;;;;;;;;;;;;;4973540;28;20046;-72
2023/02/07 13:59:41;;;;;;;32.70;20.35;;;;;;;;;;4972756;28;20057;-73
2023/02/07 14:02:16;;;;;;;36.97;21.15;;;;;;;;;;4972779;28;20034;-71
2023/02/07 14:04:56;;;;;;;33.55;20.38;;;;;;;;;;4972585;28;20580;-70
2023/02/07 14:07:28;;;;;;;31.23;19.08;;;;;;;;;;4972162;28;20117;-71
2023/02/07 14:09:58;;;;;;;30.95;18.85;;;;;;;;;;4971914;28;20051;-73
2023/02/07 14:12:26;;;;;;;29.98;19.63;;;;;;;;;;4972781;28;20027;-71
2023/02/07 14:14:52;;;;;;;33.72;19.92;;;;;;;;;;4972440;28;20023;-73
2023/02/07 14:17:27;;;;;;;30.33;18.90;;;;;;;;;;4970638;28;20046;-71
2023/02/07 14:19:58;;;;;;;30.85;18.63;;;;;;;;;;4972724;28;20110;-71
2023/02/07 14:22:27;;;;;;;33.67;19.40;;;;;;;;;;4972480;28;20019;-72
2023/02/07 14:24:59;;;;;;;29.70;18.02;;;;;;;;;;4972138;28;20716;-72
2023/02/07 14:27:25;;;;;;;33.63;17.83;;;;;;;;;;4971523;28;20027;-70
2023/02/07 14:29:55;;;;;;;27.83;16.13;;;;;;;;;;4970789;28;20030;-71
2023/02/07 14:32:26;;;;;;;24.08;13.52;;;;;;;;;;4971220;28;20034;-71
2023/02/07 14:35:00;;;;;;;30.65;16.73;;;;;;;;;;4972024;28;20037;-72